sensor_id;sensor_type;location;lat;lon;timestamp;temperature;humidity
21037;DHT22;10677;50.942;4.028;2023-02-28T00:01:26;2.50;99.90
21037;DHT22;10677;50.942;4.028;2023-02-28T00:03:52;2.50;99.90
21037;DHT22;10677;50.942;4.028;2023-02-28T00:06:18;2.50;99.90
21037;DHT22;10677;50.942;4.028;2023-02-28T00:08:43;2.50;99.90
21037;DHT22;10677;50.942;4.028;2023-02-28T00:11:12;2.50;99.90
21037;DHT22;10677;50.942;4.028;2023-02-28T00:13:41;2.50;99.90
21037;DHT22;10677;50.942;4.028;2023-02-28T00:16:10;2.40;99.90
21037;DHT22;10677;50.942;4.028;2023-02-28T00:18:37;2.40;99.90
21037;DHT22;10677;50.942;4.028;2023-02-28T00:21:03;2.40;99.90
21037;DHT22;10677;50.942;4.028;2023-02-28T00:23:29;2.30;99.90
21037;DHT22;10677;50.942;4.028;2023-02-28T00:25:55;2.30;99.90
21037;DHT22;10677;50.942;4.028;2023-02-28T00:28:21;2.30;99.90
21037;DHT22;10677;50.942;4.028;2023-02-28T00:30:47;2.50;99.90
21037;DHT22;10677;50.942;4.028;2023-02-28T00:33:13;2.50;99.90
21037;DHT22;10677;50.942;4.028;2023-02-28T00:35:39;2.50;99.90
21037;DHT22;10677;50.942;4.028;2023-02-28T00:38:04;2.40;99.90
21037;DHT22;10677;50.942;4.028;2023-02-28T00:40:30;2.30;99.90
21037;DHT22;10677;50.942;4.028;2023-02-28T00:42:56;2.30;99.90
21037;DHT22;10677;50.942;4.028;2023-02-28T00:45:21;2.20;99.90
21037;DHT22;10677;50.942;4.028;2023-02-28T00:47:47;2.20;99.90
21037;DHT22;10677;50.942;4.028;2023-02-28T00:50:17;2.10;99.90
21037;DHT22;10677;50.942;4.028;2023-02-28T00:52:42;2.10;99.90
21037;DHT22;10677;50.942;4.028;2023-02-28T00:55:09;2.10;99.90
21037;DHT22;10677;50.942;4.028;2023-02-28T00:57:35;2.10;99.90
21037;DHT22;10677;50.942;4.028;2023-02-28T01:00:00;2.10;99.90
21037;DHT22;10677;50.942;4.028;2023-02-28T01:02:27;2.20;99.90
21037;DHT22;10677;50.942;4.028;2023-02-28T01:04:52;2.20;99.90
21037;DHT22;10677;50.942;4.028;2023-02-28T01:07:19;2.10;99.90
21037;DHT22;10677;50.942;4.028;2023-02-28T01:09:44;2.10;99.90
21037;DHT22;10677;50.942;4.028;2023-02-28T01:12:10;2.00;99.90
21037;DHT22;10677;50.942;4.028;2023-02-28T01:14:35;2.00;99.90
21037;DHT22;10677;50.942;4.028;2023-02-28T01:17:01;2.10;99.90
21037;DHT22;10677;50.942;4.028;2023-02-28T01:19:27;2.00;99.90
21037;DHT22;10677;50.942;4.028;2023-02-28T01:21:53;2.00;99.90
21037;DHT22;10677;50.942;4.028;2023-02-28T01:24:18;2.00;99.90
21037;DHT22;10677;50.942;4.028;2023-02-28T01:26:44;1.90;99.90
21037;DHT22;10677;50.942;4.028;2023-02-28T01:29:10;2.00;99.90
21037;DHT22;10677;50.942;4.028;2023-02-28T01:31:36;2.00;99.90
21037;DHT22;10677;50.942;4.028;2023-02-28T01:34:02;2.00;99.90
21037;DHT22;10677;50.942;4.028;2023-02-28T01:36:29;1.90;99.90
21037;DHT22;10677;50.942;4.028;2023-02-28T01:38:56;1.90;99.90
21037;DHT22;10677;50.942;4.028;2023-02-28T01:41:28;1.90;99.90
21037;DHT22;10677;50.942;4.028;2023-02-28T01:43:56;1.90;99.90
21037;DHT22;10677;50.942;4.028;2023-02-28T01:46:22;1.90;99.90
21037;DHT22;10677;50.942;4.028;2023-02-28T01:48:53;2.00;99.90
21037;DHT22;10677;50.942;4.028;2023-02-28T01:54:08;2.10;99.90
21037;DHT22;10677;50.942;4.028;2023-02-28T01:56:44;2.20;99.90
21037;DHT22;10677;50.942;4.028;2023-02-28T01:59:18;2.20;99.90
21037;DHT22;10677;50.942;4.028;2023-02-28T02:01:45;2.20;99.90
21037;DHT22;10677;50.942;4.028;2023-02-28T02:04:11;2.10;99.90
21037;DHT22;10677;50.942;4.028;2023-02-28T02:06:43;2.10;99.90
21037;DHT22;10677;50.942;4.028;2023-02-28T02:09:09;2.00;99.90
21037;DHT22;10677;50.942;4.028;2023-02-28T02:11:35;2.00;99.90
21037;DHT22;10677;50.942;4.028;2023-02-28T02:16:48;1.90;99.90
21037;DHT22;10677;50.942;4.028;2023-02-28T02:25:08;1.70;99.90
21037;DHT22;10677;50.942;4.028;2023-02-28T02:33:26;1.60;99.90
21037;DHT22;10677;50.942;4.028;2023-02-28T02:36:07;1.60;99.90
21037;DHT22;10677;50.942;4.028;2023-02-28T02:46:41;1.50;99.90
21037;DHT22;10677;50.942;4.028;2023-02-28T02:49:25;1.60;99.90
21037;DHT22;10677;50.942;4.028;2023-02-28T02:51:53;1.70;99.90
21037;DHT22;10677;50.942;4.028;2023-02-28T02:54:28;1.70;99.90
21037;DHT22;10677;50.942;4.028;2023-02-28T02:56:57;1.70;99.90
21037;DHT22;10677;50.942;4.028;2023-02-28T02:59:24;1.60;99.90
21037;DHT22;10677;50.942;4.028;2023-02-28T03:01:56;1.60;99.90
21037;DHT22;10677;50.942;4.028;2023-02-28T03:04:25;1.60;99.90
21037;DHT22;10677;50.942;4.028;2023-02-28T03:06:53;1.60;99.90
21037;DHT22;10677;50.942;4.028;2023-02-28T03:09:21;1.70;99.90
21037;DHT22;10677;50.942;4.028;2023-02-28T03:11:48;1.70;99.90
21037;DHT22;10677;50.942;4.028;2023-02-28T03:17:24;1.70;99.90
21037;DHT22;10677;50.942;4.028;2023-02-28T03:23:01;1.70;99.90
21037;DHT22;10677;50.942;4.028;2023-02-28T03:28:22;1.50;99.90
21037;DHT22;10677;50.942;4.028;2023-02-28T03:30:51;1.50;99.90
21037;DHT22;10677;50.942;4.028;2023-02-28T03:33:32;1.50;99.90
21037;DHT22;10677;50.942;4.028;2023-02-28T03:36:04;1.40;99.90
21037;DHT22;10677;50.942;4.028;2023-02-28T03:38:35;1.50;99.90
21037;DHT22;10677;50.942;4.028;2023-02-28T03:41:14;1.50;99.90
21037;DHT22;10677;50.942;4.028;2023-02-28T03:43:46;1.60;99.90
21037;DHT22;10677;50.942;4.028;2023-02-28T03:46:17;1.50;99.90
21037;DHT22;10677;50.942;4.028;2023-02-28T03:49:10;1.50;99.90
21037;DHT22;10677;50.942;4.028;2023-02-28T03:51:38;1.50;99.90
21037;DHT22;10677;50.942;4.028;2023-02-28T03:54:25;1.60;99.90
21037;DHT22;10677;50.942;4.028;2023-02-28T03:56:56;1.70;99.90
21037;DHT22;10677;50.942;4.028;2023-02-28T03:59:32;1.70;99.90
21037;DHT22;10677;50.942;4.028;2023-02-28T04:01:58;1.70;99.90
21037;DHT22;10677;50.942;4.028;2023-02-28T04:04:24;1.60;99.90
21037;DHT22;10677;50.942;4.028;2023-02-28T04:07:04;1.50;99.90
21037;DHT22;10677;50.942;4.028;2023-02-28T04:09:30;1.50;99.90
21037;DHT22;10677;50.942;4.028;2023-02-28T04:11:56;1.40;99.90
21037;DHT22;10677;50.942;4.028;2023-02-28T04:14:22;1.40;99.90
21037;DHT22;10677;50.942;4.028;2023-02-28T04:16:48;1.40;99.90
21037;DHT22;10677;50.942;4.028;2023-02-28T04:19:14;1.40;99.90
21037;DHT22;10677;50.942;4.028;2023-02-28T04:21:43;1.40;99.90
21037;DHT22;10677;50.942;4.028;2023-02-28T04:24:11;1.40;99.90
21037;DHT22;10677;50.942;4.028;2023-02-28T04:26:40;1.40;99.90
21037;DHT22;10677;50.942;4.028;2023-02-28T04:29:07;1.30;99.90
21037;DHT22;10677;50.942;4.028;2023-02-28T04:31:33;1.30;99.90
21037;DHT22;10677;50.942;4.028;2023-02-28T04:33:59;1.40;99.90
21037;DHT22;10677;50.942;4.028;2023-02-28T04:36:26;1.40;99.90
21037;DHT22;10677;50.942;4.028;2023-02-28T04:38:52;1.50;99.90
21037;DHT22;10677;50.942;4.028;2023-02-28T04:41:18;1.60;99.90
21037;DHT22;10677;50.942;4.028;2023-02-28T04:43:44;1.60;99.90
21037;DHT22;10677;50.942;4.028;2023-02-28T04:46:10;1.60;99.90
21037;DHT22;10677;50.942;4.028;2023-02-28T04:48:37;1.70;99.90
21037;DHT22;10677;50.942;4.028;2023-02-28T04:51:04;1.70;99.90
21037;DHT22;10677;50.942;4.028;2023-02-28T04:53:30;1.70;99.90
21037;DHT22;10677;50.942;4.028;2023-02-28T04:55:57;1.70;99.90
21037;DHT22;10677;50.942;4.028;2023-02-28T04:58:24;1.60;99.90
21037;DHT22;10677;50.942;4.028;2023-02-28T05:00:50;1.50;99.90
21037;DHT22;10677;50.942;4.028;2023-02-28T05:03:16;1.40;99.90
21037;DHT22;10677;50.942;4.028;2023-02-28T05:05:42;1.60;99.90
21037;DHT22;10677;50.942;4.028;2023-02-28T05:08:07;1.70;99.90
21037;DHT22;10677;50.942;4.028;2023-02-28T05:10:33;1.90;99.90
21037;DHT22;10677;50.942;4.028;2023-02-28T05:12:58;2.00;99.90
21037;DHT22;10677;50.942;4.028;2023-02-28T05:15:24;2.10;99.90
21037;DHT22;10677;50.942;4.028;2023-02-28T05:17:50;2.10;99.90
21037;DHT22;10677;50.942;4.028;2023-02-28T05:20:16;2.20;99.90
21037;DHT22;10677;50.942;4.028;2023-02-28T05:22:42;2.20;99.90
21037;DHT22;10677;50.942;4.028;2023-02-28T05:25:15;2.20;99.90
21037;DHT22;10677;50.942;4.028;2023-02-28T05:27:41;2.30;99.90
21037;DHT22;10677;50.942;4.028;2023-02-28T05:30:07;2.40;99.90
21037;DHT22;10677;50.942;4.028;2023-02-28T05:32:38;2.20;99.90
21037;DHT22;10677;50.942;4.028;2023-02-28T05:35:09;1.80;99.90
21037;DHT22;10677;50.942;4.028;2023-02-28T05:37:34;1.90;99.90
21037;DHT22;10677;50.942;4.028;2023-02-28T05:40:00;2.10;99.90
21037;DHT22;10677;50.942;4.028;2023-02-28T05:42:26;2.20;99.90
21037;DHT22;10677;50.942;4.028;2023-02-28T05:44:51;2.10;99.90
21037;DHT22;10677;50.942;4.028;2023-02-28T05:47:17;2.00;99.90
21037;DHT22;10677;50.942;4.028;2023-02-28T05:49:43;2.00;99.90
21037;DHT22;10677;50.942;4.028;2023-02-28T05:52:08;2.20;99.90
21037;DHT22;10677;50.942;4.028;2023-02-28T05:54:34;2.40;99.90
21037;DHT22;10677;50.942;4.028;2023-02-28T05:56:59;2.60;99.90
21037;DHT22;10677;50.942;4.028;2023-02-28T05:59:25;2.60;99.90
21037;DHT22;10677;50.942;4.028;2023-02-28T06:01:51;2.60;99.90
21037;DHT22;10677;50.942;4.028;2023-02-28T06:04:20;2.40;99.90
21037;DHT22;10677;50.942;4.028;2023-02-28T06:06:47;2.30;99.90
21037;DHT22;10677;50.942;4.028;2023-02-28T06:09:13;2.20;99.90
21037;DHT22;10677;50.942;4.028;2023-02-28T06:11:39;2.20;99.90
21037;DHT22;10677;50.942;4.028;2023-02-28T06:14:05;2.30;99.90
21037;DHT22;10677;50.942;4.028;2023-02-28T06:16:33;2.60;99.90
21037;DHT22;10677;50.942;4.028;2023-02-28T06:19:01;2.80;99.90
21037;DHT22;10677;50.942;4.028;2023-02-28T06:21:27;2.90;99.90
21037;DHT22;10677;50.942;4.028;2023-02-28T06:23:53;2.90;99.90
21037;DHT22;10677;50.942;4.028;2023-02-28T06:26:19;2.80;99.90
21037;DHT22;10677;50.942;4.028;2023-02-28T06:28:46;2.60;99.90
21037;DHT22;10677;50.942;4.028;2023-02-28T06:31:15;2.60;99.90
21037;DHT22;10677;50.942;4.028;2023-02-28T06:33:42;2.50;99.90
21037;DHT22;10677;50.942;4.028;2023-02-28T06:36:10;2.40;99.90
21037;DHT22;10677;50.942;4.028;2023-02-28T06:38:36;2.10;99.90
21037;DHT22;10677;50.942;4.028;2023-02-28T06:41:03;2.20;99.90
21037;DHT22;10677;50.942;4.028;2023-02-28T06:43:32;2.20;99.90
21037;DHT22;10677;50.942;4.028;2023-02-28T06:46:00;2.20;99.90
21037;DHT22;10677;50.942;4.028;2023-02-28T06:48:27;2.30;99.90
21037;DHT22;10677;50.942;4.028;2023-02-28T06:51:00;2.40;99.90
21037;DHT22;10677;50.942;4.028;2023-02-28T06:53:26;2.50;99.90
21037;DHT22;10677;50.942;4.028;2023-02-28T06:55:52;2.60;99.90
21037;DHT22;10677;50.942;4.028;2023-02-28T06:58:18;2.70;99.90
21037;DHT22;10677;50.942;4.028;2023-02-28T07:00:45;3.10;99.90
21037;DHT22;10677;50.942;4.028;2023-02-28T07:03:14;3.10;99.90
21037;DHT22;10677;50.942;4.028;2023-02-28T07:05:41;2.90;99.90
21037;DHT22;10677;50.942;4.028;2023-02-28T07:08:07;2.90;99.90
21037;DHT22;10677;50.942;4.028;2023-02-28T07:10:37;3.00;99.90
21037;DHT22;10677;50.942;4.028;2023-02-28T07:13:05;3.30;99.90
21037;DHT22;10677;50.942;4.028;2023-02-28T07:15:31;3.20;99.90
21037;DHT22;10677;50.942;4.028;2023-02-28T07:17:59;3.10;99.90
21037;DHT22;10677;50.942;4.028;2023-02-28T07:20:25;3.10;99.90
21037;DHT22;10677;50.942;4.028;2023-02-28T07:22:51;3.30;99.90
21037;DHT22;10677;50.942;4.028;2023-02-28T07:25:26;3.40;99.90
21037;DHT22;10677;50.942;4.028;2023-02-28T07:27:53;3.20;99.90
21037;DHT22;10677;50.942;4.028;2023-02-28T07:30:19;3.30;99.90
21037;DHT22;10677;50.942;4.028;2023-02-28T07:32:45;3.30;99.90
21037;DHT22;10677;50.942;4.028;2023-02-28T07:35:11;3.50;99.90
21037;DHT22;10677;50.942;4.028;2023-02-28T07:37:37;3.60;99.90
21037;DHT22;10677;50.942;4.028;2023-02-28T07:40:05;3.70;99.90
21037;DHT22;10677;50.942;4.028;2023-02-28T07:42:35;4.00;99.90
21037;DHT22;10677;50.942;4.028;2023-02-28T07:45:03;3.90;99.90
21037;DHT22;10677;50.942;4.028;2023-02-28T07:47:31;3.60;99.90
21037;DHT22;10677;50.942;4.028;2023-02-28T07:50:00;3.40;99.90
21037;DHT22;10677;50.942;4.028;2023-02-28T07:52:29;3.30;99.90
21037;DHT22;10677;50.942;4.028;2023-02-28T07:54:58;3.40;99.90
21037;DHT22;10677;50.942;4.028;2023-02-28T07:57:31;3.40;99.90
21037;DHT22;10677;50.942;4.028;2023-02-28T07:59:59;3.50;99.90
21037;DHT22;10677;50.942;4.028;2023-02-28T08:02:28;3.80;99.90
21037;DHT22;10677;50.942;4.028;2023-02-28T08:04:54;4.00;99.90
21037;DHT22;10677;50.942;4.028;2023-02-28T08:07:20;4.10;99.90
21037;DHT22;10677;50.942;4.028;2023-02-28T08:09:46;4.10;99.90
21037;DHT22;10677;50.942;4.028;2023-02-28T08:12:12;4.10;99.90
21037;DHT22;10677;50.942;4.028;2023-02-28T08:14:38;4.30;99.90
21037;DHT22;10677;50.942;4.028;2023-02-28T08:17:05;4.40;99.90
21037;DHT22;10677;50.942;4.028;2023-02-28T08:19:31;4.50;99.90
21037;DHT22;10677;50.942;4.028;2023-02-28T08:21:58;4.30;99.90
21037;DHT22;10677;50.942;4.028;2023-02-28T08:24:24;4.40;99.90
21037;DHT22;10677;50.942;4.028;2023-02-28T08:26:50;4.40;99.90
21037;DHT22;10677;50.942;4.028;2023-02-28T08:29:16;4.40;99.90
21037;DHT22;10677;50.942;4.028;2023-02-28T08:31:42;4.50;99.90
21037;DHT22;10677;50.942;4.028;2023-02-28T08:34:13;4.40;99.90
21037;DHT22;10677;50.942;4.028;2023-02-28T08:36:40;4.30;99.90
21037;DHT22;10677;50.942;4.028;2023-02-28T08:39:06;4.50;99.90
21037;DHT22;10677;50.942;4.028;2023-02-28T08:41:32;4.70;99.90
21037;DHT22;10677;50.942;4.028;2023-02-28T08:44:03;4.70;99.90
21037;DHT22;10677;50.942;4.028;2023-02-28T08:46:29;4.80;99.90
21037;DHT22;10677;50.942;4.028;2023-02-28T08:48:57;4.80;99.90
21037;DHT22;10677;50.942;4.028;2023-02-28T08:51:27;4.70;99.90
21037;DHT22;10677;50.942;4.028;2023-02-28T08:53:54;4.70;99.90
21037;DHT22;10677;50.942;4.028;2023-02-28T08:56:21;4.60;99.90
21037;DHT22;10677;50.942;4.028;2023-02-28T08:58:48;4.70;99.90
21037;DHT22;10677;50.942;4.028;2023-02-28T09:01:17;4.90;99.90
21037;DHT22;10677;50.942;4.028;2023-02-28T09:03:45;5.00;99.90
21037;DHT22;10677;50.942;4.028;2023-02-28T09:06:13;5.10;99.90
21037;DHT22;10677;50.942;4.028;2023-02-28T09:08:39;5.30;99.90
21037;DHT22;10677;50.942;4.028;2023-02-28T09:11:05;5.30;99.90
21037;DHT22;10677;50.942;4.028;2023-02-28T09:13:31;5.40;99.90
21037;DHT22;10677;50.942;4.028;2023-02-28T09:16:01;5.60;99.90
21037;DHT22;10677;50.942;4.028;2023-02-28T09:18:28;5.70;99.90
21037;DHT22;10677;50.942;4.028;2023-02-28T09:20:54;5.40;99.90
21037;DHT22;10677;50.942;4.028;2023-02-28T09:23:20;5.60;99.90
21037;DHT22;10677;50.942;4.028;2023-02-28T09:25:51;6.00;99.90
21037;DHT22;10677;50.942;4.028;2023-02-28T09:28:18;6.10;99.90
21037;DHT22;10677;50.942;4.028;2023-02-28T09:30:46;6.10;99.90
21037;DHT22;10677;50.942;4.028;2023-02-28T09:33:13;6.20;99.90
21037;DHT22;10677;50.942;4.028;2023-02-28T09:35:39;6.40;99.90
21037;DHT22;10677;50.942;4.028;2023-02-28T09:38:05;6.70;99.90
21037;DHT22;10677;50.942;4.028;2023-02-28T09:40:41;6.80;99.90
21037;DHT22;10677;50.942;4.028;2023-02-28T09:43:13;6.80;99.90
21037;DHT22;10677;50.942;4.028;2023-02-28T09:45:42;6.60;99.90
21037;DHT22;10677;50.942;4.028;2023-02-28T09:48:19;6.60;99.90
21037;DHT22;10677;50.942;4.028;2023-02-28T09:50:59;6.60;99.90
21037;DHT22;10677;50.942;4.028;2023-02-28T09:53:32;6.70;99.90
21037;DHT22;10677;50.942;4.028;2023-02-28T09:56:24;6.60;99.90
21037;DHT22;10677;50.942;4.028;2023-02-28T09:59:26;6.70;99.90
21037;DHT22;10677;50.942;4.028;2023-02-28T10:01:57;6.70;99.90
21037;DHT22;10677;50.942;4.028;2023-02-28T10:04:42;6.30;99.90
21037;DHT22;10677;50.942;4.028;2023-02-28T10:11:12;6.20;99.90
21037;DHT22;10677;50.942;4.028;2023-02-28T10:13:46;6.30;99.90
21037;DHT22;10677;50.942;4.028;2023-02-28T10:17:04;6.10;99.90
21037;DHT22;10677;50.942;4.028;2023-02-28T10:19:20;6.20;99.90
21037;DHT22;10677;50.942;4.028;2023-02-28T10:27:01;6.40;99.90
21037;DHT22;10677;50.942;4.028;2023-02-28T10:29:32;6.70;99.90
21037;DHT22;10677;50.942;4.028;2023-02-28T10:32:01;6.60;99.90
21037;DHT22;10677;50.942;4.028;2023-02-28T10:34:28;6.70;99.90
21037;DHT22;10677;50.942;4.028;2023-02-28T10:36:57;6.80;99.90
21037;DHT22;10677;50.942;4.028;2023-02-28T10:39:41;6.50;99.90
21037;DHT22;10677;50.942;4.028;2023-02-28T10:42:27;6.20;99.90
21037;DHT22;10677;50.942;4.028;2023-02-28T10:45:13;6.00;99.90
21037;DHT22;10677;50.942;4.028;2023-02-28T10:48:36;5.90;99.90
21037;DHT22;10677;50.942;4.028;2023-02-28T10:56:02;5.80;99.90
21037;DHT22;10677;50.942;4.028;2023-02-28T11:01:44;6.00;99.90
21037;DHT22;10677;50.942;4.028;2023-02-28T11:06:47;6.00;99.90
21037;DHT22;10677;50.942;4.028;2023-02-28T11:09:22;5.90;99.90
21037;DHT22;10677;50.942;4.028;2023-02-28T11:11:49;5.90;99.90
21037;DHT22;10677;50.942;4.028;2023-02-28T11:14:25;5.90;99.90
21037;DHT22;10677;50.942;4.028;2023-02-28T11:16:52;5.80;99.90
21037;DHT22;10677;50.942;4.028;2023-02-28T11:19:22;5.70;99.90
21037;DHT22;10677;50.942;4.028;2023-02-28T11:21:55;5.60;99.90
21037;DHT22;10677;50.942;4.028;2023-02-28T11:24:40;5.40;99.90
21037;DHT22;10677;50.942;4.028;2023-02-28T11:29:59;5.70;99.90
21037;DHT22;10677;50.942;4.028;2023-02-28T11:32:27;5.70;99.90
21037;DHT22;10677;50.942;4.028;2023-02-28T11:35:03;5.70;99.90
21037;DHT22;10677;50.942;4.028;2023-02-28T11:37:31;5.70;99.90
21037;DHT22;10677;50.942;4.028;2023-02-28T11:39:57;5.90;99.90
21037;DHT22;10677;50.942;4.028;2023-02-28T11:42:32;5.90;99.90
21037;DHT22;10677;50.942;4.028;2023-02-28T11:45:07;6.00;99.90
21037;DHT22;10677;50.942;4.028;2023-02-28T11:50:42;5.80;99.90
21037;DHT22;10677;50.942;4.028;2023-02-28T11:56:28;6.10;99.90
21037;DHT22;10677;50.942;4.028;2023-02-28T11:59:41;6.30;99.90
21037;DHT22;10677;50.942;4.028;2023-02-28T12:08:03;6.70;99.90
21037;DHT22;10677;50.942;4.028;2023-02-28T12:13:36;6.90;99.90
21037;DHT22;10677;50.942;4.028;2023-02-28T12:21:40;6.10;99.90
21037;DHT22;10677;50.942;4.028;2023-02-28T12:27:00;6.50;99.90
21037;DHT22;10677;50.942;4.028;2023-02-28T12:30:00;6.60;99.90
21037;DHT22;10677;50.942;4.028;2023-02-28T12:32:56;6.50;99.90
21037;DHT22;10677;50.942;4.028;2023-02-28T12:35:54;6.30;99.90
21037;DHT22;10677;50.942;4.028;2023-02-28T12:38:54;6.30;99.90
21037;DHT22;10677;50.942;4.028;2023-02-28T12:41:36;6.30;99.90
21037;DHT22;10677;50.942;4.028;2023-02-28T12:44:09;6.30;99.90
21037;DHT22;10677;50.942;4.028;2023-02-28T12:47:05;6.30;99.90
21037;DHT22;10677;50.942;4.028;2023-02-28T12:50:06;6.50;99.90
21037;DHT22;10677;50.942;4.028;2023-02-28T12:52:48;6.70;99.90
21037;DHT22;10677;50.942;4.028;2023-02-28T12:55:49;6.50;99.90
21037;DHT22;10677;50.942;4.028;2023-02-28T13:01:31;6.80;99.90
21037;DHT22;10677;50.942;4.028;2023-02-28T13:09:38;6.80;99.90
21037;DHT22;10677;50.942;4.028;2023-02-28T13:12:31;6.90;99.90
21037;DHT22;10677;50.942;4.028;2023-02-28T13:17:40;6.90;99.90
21037;DHT22;10677;50.942;4.028;2023-02-28T13:20:19;6.80;99.90
21037;DHT22;10677;50.942;4.028;2023-02-28T13:22:51;6.80;99.90
21037;DHT22;10677;50.942;4.028;2023-02-28T13:28:02;6.80;99.90
21037;DHT22;10677;50.942;4.028;2023-02-28T13:33:30;6.70;99.90
21037;DHT22;10677;50.942;4.028;2023-02-28T13:36:10;6.60;99.90
21037;DHT22;10677;50.942;4.028;2023-02-28T13:38:49;6.60;99.90
21037;DHT22;10677;50.942;4.028;2023-02-28T13:44:10;6.90;99.90
21037;DHT22;10677;50.942;4.028;2023-02-28T13:49:29;6.90;99.90
21037;DHT22;10677;50.942;4.028;2023-02-28T13:57:30;7.20;99.90
21037;DHT22;10677;50.942;4.028;2023-02-28T14:00:20;7.00;99.90
21037;DHT22;10677;50.942;4.028;2023-02-28T14:05:33;7.10;99.90
21037;DHT22;10677;50.942;4.028;2023-02-28T14:10:39;7.20;99.90
21037;DHT22;10677;50.942;4.028;2023-02-28T14:16:00;7.60;99.90
21037;DHT22;10677;50.942;4.028;2023-02-28T14:20:58;7.70;99.90
21037;DHT22;10677;50.942;4.028;2023-02-28T14:23:41;8.10;99.90
21037;DHT22;10677;50.942;4.028;2023-02-28T14:29:44;8.70;99.90
21037;DHT22;10677;50.942;4.028;2023-02-28T14:35:16;9.00;99.90
21037;DHT22;10677;50.942;4.028;2023-02-28T14:37:48;9.30;99.90
21037;DHT22;10677;50.942;4.028;2023-02-28T14:40:29;10.30;99.90
21037;DHT22;10677;50.942;4.028;2023-02-28T14:43:04;10.70;99.90
21037;DHT22;10677;50.942;4.028;2023-02-28T14:45:33;10.60;99.90
21037;DHT22;10677;50.942;4.028;2023-02-28T14:48:02;10.70;99.90
21037;DHT22;10677;50.942;4.028;2023-02-28T14:50:38;11.30;99.90
21037;DHT22;10677;50.942;4.028;2023-02-28T14:53:09;11.30;99.90
21037;DHT22;10677;50.942;4.028;2023-02-28T14:55:45;11.70;99.90
21037;DHT22;10677;50.942;4.028;2023-02-28T14:58:31;13.10;99.90
21037;DHT22;10677;50.942;4.028;2023-02-28T15:01:03;13.30;99.90
21037;DHT22;10677;50.942;4.028;2023-02-28T15:03:33;13.50;99.90
21037;DHT22;10677;50.942;4.028;2023-02-28T15:06:03;14.50;99.70
21037;DHT22;10677;50.942;4.028;2023-02-28T15:08:30;16.20;96.40
21037;DHT22;10677;50.942;4.028;2023-02-28T15:11:15;15.30;95.10
21037;DHT22;10677;50.942;4.028;2023-02-28T15:13:47;13.00;96.00
21037;DHT22;10677;50.942;4.028;2023-02-28T15:16:18;12.60;97.40
21037;DHT22;10677;50.942;4.028;2023-02-28T15:21:18;12.10;97.60
21037;DHT22;10677;50.942;4.028;2023-02-28T15:23:52;12.50;97.60
21037;DHT22;10677;50.942;4.028;2023-02-28T15:26:25;13.00;97.20
21037;DHT22;10677;50.942;4.028;2023-02-28T15:28:59;12.50;97.30
21037;DHT22;10677;50.942;4.028;2023-02-28T15:31:44;13.20;97.50
21037;DHT22;10677;50.942;4.028;2023-02-28T15:34:37;14.20;95.60
21037;DHT22;10677;50.942;4.028;2023-02-28T15:39:50;15.90;94.00
21037;DHT22;10677;50.942;4.028;2023-02-28T15:42:20;15.70;93.50
21037;DHT22;10677;50.942;4.028;2023-02-28T15:44:48;15.50;93.50
21037;DHT22;10677;50.942;4.028;2023-02-28T15:47:19;15.00;94.10
21037;DHT22;10677;50.942;4.028;2023-02-28T15:50:00;15.10;93.90
21037;DHT22;10677;50.942;4.028;2023-02-28T15:54:57;16.00;92.50
21037;DHT22;10677;50.942;4.028;2023-02-28T15:57:28;15.90;91.90
21037;DHT22;10677;50.942;4.028;2023-02-28T16:00:01;15.40;92.00
21037;DHT22;10677;50.942;4.028;2023-02-28T16:07:34;14.60;92.10
21037;DHT22;10677;50.942;4.028;2023-02-28T16:10:00;14.50;92.40
21037;DHT22;10677;50.942;4.028;2023-02-28T16:12:30;14.20;92.70
21037;DHT22;10677;50.942;4.028;2023-02-28T16:14:59;13.90;92.80
21037;DHT22;10677;50.942;4.028;2023-02-28T16:17:30;14.10;92.60
21037;DHT22;10677;50.942;4.028;2023-02-28T16:19:57;14.00;92.60
21037;DHT22;10677;50.942;4.028;2023-02-28T16:22:23;13.90;92.50
21037;DHT22;10677;50.942;4.028;2023-02-28T16:24:49;13.90;92.50
21037;DHT22;10677;50.942;4.028;2023-02-28T16:27:36;14.20;92.50
21037;DHT22;10677;50.942;4.028;2023-02-28T16:30:05;13.30;92.90
21037;DHT22;10677;50.942;4.028;2023-02-28T16:32:35;12.20;93.60
21037;DHT22;10677;50.942;4.028;2023-02-28T16:35:01;11.30;94.90
21037;DHT22;10677;50.942;4.028;2023-02-28T16:37:27;10.70;95.80
21037;DHT22;10677;50.942;4.028;2023-02-28T16:39:53;10.00;96.90
21037;DHT22;10677;50.942;4.028;2023-02-28T16:42:28;9.50;97.80
21037;DHT22;10677;50.942;4.028;2023-02-28T16:44:55;8.80;98.80
21037;DHT22;10677;50.942;4.028;2023-02-28T16:47:21;8.10;99.90
21037;DHT22;10677;50.942;4.028;2023-02-28T16:49:47;7.70;99.90
21037;DHT22;10677;50.942;4.028;2023-02-28T16:52:13;7.50;99.90
21037;DHT22;10677;50.942;4.028;2023-02-28T16:54:40;7.20;99.90
21037;DHT22;10677;50.942;4.028;2023-02-28T16:57:12;6.90;99.90
21037;DHT22;10677;50.942;4.028;2023-02-28T16:59:40;6.70;99.90
21037;DHT22;10677;50.942;4.028;2023-02-28T17:02:14;6.70;99.90
21037;DHT22;10677;50.942;4.028;2023-02-28T17:04:40;6.80;99.90
21037;DHT22;10677;50.942;4.028;2023-02-28T17:07:11;6.70;99.90
21037;DHT22;10677;50.942;4.028;2023-02-28T17:09:38;6.50;99.90
21037;DHT22;10677;50.942;4.028;2023-02-28T17:12:08;6.30;99.90
21037;DHT22;10677;50.942;4.028;2023-02-28T17:14:34;6.30;99.90
21037;DHT22;10677;50.942;4.028;2023-02-28T17:17:00;6.30;99.90
21037;DHT22;10677;50.942;4.028;2023-02-28T17:19:26;6.20;99.90
21037;DHT22;10677;50.942;4.028;2023-02-28T17:21:53;6.30;99.90
21037;DHT22;10677;50.942;4.028;2023-02-28T17:24:18;6.30;99.90
21037;DHT22;10677;50.942;4.028;2023-02-28T17:26:44;6.30;99.90
21037;DHT22;10677;50.942;4.028;2023-02-28T17:29:19;6.40;99.90
21037;DHT22;10677;50.942;4.028;2023-02-28T17:31:45;6.50;99.90
21037;DHT22;10677;50.942;4.028;2023-02-28T17:34:12;6.50;99.90
21037;DHT22;10677;50.942;4.028;2023-02-28T17:36:44;6.40;99.90
21037;DHT22;10677;50.942;4.028;2023-02-28T17:39:12;6.30;99.90
21037;DHT22;10677;50.942;4.028;2023-02-28T17:41:40;6.10;99.90
21037;DHT22;10677;50.942;4.028;2023-02-28T17:44:07;6.00;99.90
21037;DHT22;10677;50.942;4.028;2023-02-28T17:46:33;6.00;99.90
21037;DHT22;10677;50.942;4.028;2023-02-28T17:48:59;6.10;99.90
21037;DHT22;10677;50.942;4.028;2023-02-28T17:51:25;6.10;99.90
21037;DHT22;10677;50.942;4.028;2023-02-28T17:53:51;6.20;99.90
21037;DHT22;10677;50.942;4.028;2023-02-28T17:56:22;6.20;99.90
21037;DHT22;10677;50.942;4.028;2023-02-28T17:58:49;6.10;99.90
21037;DHT22;10677;50.942;4.028;2023-02-28T18:01:15;6.20;99.90
21037;DHT22;10677;50.942;4.028;2023-02-28T18:03:41;6.00;99.90
21037;DHT22;10677;50.942;4.028;2023-02-28T18:06:07;5.80;99.90
21037;DHT22;10677;50.942;4.028;2023-02-28T18:08:37;5.70;99.90
21037;DHT22;10677;50.942;4.028;2023-02-28T18:11:03;5.80;99.90
21037;DHT22;10677;50.942;4.028;2023-02-28T18:13:29;5.80;99.90
21037;DHT22;10677;50.942;4.028;2023-02-28T18:15:54;5.80;99.90
21037;DHT22;10677;50.942;4.028;2023-02-28T18:18:20;5.70;99.90
21037;DHT22;10677;50.942;4.028;2023-02-28T18:20:46;5.80;99.90
21037;DHT22;10677;50.942;4.028;2023-02-28T18:23:13;5.80;99.90